• Join FlightAware (Why Join?)
  • Login
  • US Flag 
12:50PM EDT


 

Airport Tracker/Info


-or-


 

Live Flight TrackerFlight Track Log ✈ RPA3228 ✈ 12-May-2013 ✈ KCHS - KDCA

Flight Track Log - Related Links

Times and Time Zones

All times are in EDT time to prevent confusion due to time zone crossing. See the RPA3228 flight status page for this flight to view local times or setup timezone preferences in your user account.

Time Position Orientation Groundspeed Altitude Reporting Facility
EDT Latitude Longitude Course Direction KTS MPH feet Rate Location/Type
08:45AM 32.8547 -80.0414 13° North 181 208 1,500  Level Jacksonville Center
08:46AM 32.8869 -79.9883 54° Northeast 201 231 3,300 2,100 Climbing Jacksonville Center
08:47AM 33.2303 -79.9306 North  Level FlightAware Approximate
08:47AM 32.9481 -79.9294 39° Northeast 226 260 5,800  Level Jacksonville Center
08:48AM 33.3177 -79.9078 23° Northeast  Level FlightAware Approximate
08:48AM 33.0275 -79.9344 357° North 238 274 8,800  Level Jacksonville Center
08:49AM 33.4030 -79.8761 North  Level FlightAware Approximate
08:49AM 33.1111 -79.9367 359° North 263 303 11,100  Level Jacksonville Center
08:50AM 33.4912 -79.8549 13° North  Level FlightAware Approximate
08:50AM 33.2050 -79.9383 359° North 298 343 13,600  Level Jacksonville Center
08:51AM 33.2975 -79.8831 27° Northeast 336 387 16,400 2,280 Climbing Jacksonville Center
08:52AM 33.3922 -79.8228 28° Northeast 349 402 18,200 2,160 Climbing Jacksonville Center
08:53AM 33.4928 -79.7569 29° Northeast 377 434 20,800 2,160 Climbing Jacksonville Center
08:54AM 33.5975 -79.6908 28° Northeast 399 459 22,600 1,860 Climbing Jacksonville Center
08:55AM 33.7064 -79.6222 28° Northeast 421 484 24,600 1,800 Climbing Jacksonville Center
08:56AM 33.8172 -79.5531 27° Northeast 432 497 26,200 1,440 Climbing Jacksonville Center
08:57AM 33.9972 -79.4392 28° Northeast 473 544 28,500 1,260 Climbing Washington Center
08:58AM 34.1144 -79.3619 29° Northeast 478 550 29,600 1,020 Climbing Washington Center
08:59AM 34.2400 -79.2822 28° Northeast 483 556 30,600 1,140 Climbing Washington Center
09:00AM 34.3656 -79.2072 26° Northeast 496 571 31,900 1,200 Climbing Washington Center
09:01AM 34.4908 -79.1347 25° Northeast 496 571 33,000 540 Climbing Washington Center
09:02AM 34.6158 -79.0644 25° Northeast 491 565 33,000  Level Washington Center
09:03AM 34.7389 -78.9914 26° Northeast 491 565 33,000  Level Washington Center
09:04AM 34.8619 -78.9206 25° Northeast 491 565 33,000  Level Washington Center
09:05AM 34.9850 -78.8469 26° Northeast 491 565 33,000  Level Washington Center
09:06AM 35.1081 -78.7758 25° Northeast 491 565 33,000  Level Washington Center
09:07AM 35.2308 -78.7044 25° Northeast 491 565 33,000  Level Washington Center
09:08AM 35.3561 -78.6278 27° Northeast 491 565 33,000  Level Washington Center
09:09AM 35.4725 -78.5608 25° Northeast 499 574 33,000  Level Washington Center
09:10AM 35.5975 -78.4861 26° Northeast 499 574 33,000  Level Washington Center
09:11AM 35.7264 -78.4089 26° Northeast 499 574 33,000  Level Washington Center
09:12AM 35.8514 -78.3339 26° Northeast 499 574 33,000 -300 Level Washington Center
09:13AM 35.9783 -78.2589 26° Northeast 499 574 32,400 -1,260 Descending Washington Center
09:14AM 36.1050 -78.1833 26° Northeast 499 574 30,600 -1,860 Descending Washington Center
09:15AM 36.2297 -78.1078 26° Northeast 499 574 28,800 -1,740 Descending Washington Center
09:16AM 36.3544 -78.0317 26° Northeast 494 568 27,100 -960 Descending Washington Center
09:17AM 36.4769 -77.9556 27° Northeast 494 568 26,900 -1,200 Descending Washington Center
09:18AM 36.5975 -77.8789 27° Northeast 494 568 24,800 -2,100 Descending Washington Center
09:19AM 36.7156 -77.8100 25° Northeast 480 552 22,800 -1,440 Descending Washington Center
09:20AM 36.8294 -77.7406 26° Northeast 462 532 22,000 -420 Descending Washington Center
09:21AM 36.9433 -77.6683 27° Northeast 455 524 22,000  Level Washington Center
09:22AM 37.0572 -77.5986 26° Northeast 455 524 22,000  Level Washington Center
09:23AM 37.1728 -77.5467 20° North 450 518 22,000  Level Washington Center
09:24AM 37.2925 -77.5028 16° North 444 511 22,000  Level Washington Center
09:25AM 37.4119 -77.4639 14° North 439 505 22,000  Level Washington Center
09:26AM 37.5253 -77.4247 15° North 434 499 22,000  Level Washington Center
09:27AM 37.6425 -77.3858 15° North 434 499 22,000  Level Washington Center
09:28AM 37.7581 -77.3439 16° North 434 499 22,000  Level Washington Center
09:29AM 37.8733 -77.3044 15° North 434 499 22,000 -540 Level Washington Center
09:30AM 37.9886 -77.2622 16° North 434 499 21,000 -2,400 Descending Washington Center
09:31AM 38.0975 -77.2278 14° North 422 486 17,200 -3,480 Descending Washington Center
09:32AM 38.2064 -77.1878 16° North 407 468 14,200 -3,180 Descending Washington Center
09:33AM 38.3028 -77.1553 15° North 380 437 10,900 -2,400 Descending Washington Center
09:34AM 38.3883 -77.1414 North 338 389 9,500 -1,680 Descending Washington Center
09:35AM 38.4658 -77.1244 10° North 300 345 7,600 -1,740 Descending Washington Center
09:36AM 38.5411 -77.1047 12° North 281 323 6,100 -1,560 Descending Washington Center
09:37AM 38.6142 -77.0875 10° North 270 311 4,500 -1,680 Descending Washington Center
09:38AM 38.6833 -77.0500 23° Northeast 253 291 3,000 -1,380 Descending Potomac TRACON
09:39AM 38.7333 -77.0333 15° North 218 251 2,000 -1,020 Descending Potomac TRACON